Time;durP1;ratioP1;P1;durP2;ratioP2;P2;SDS_P1;SDS_P2;PMS_P1;PMS_P2;Temp;Humidity;BMP_temperature;BMP_pressure;BME280_temperature;BME280_humidity;BME280_pressure;Samples;Min_cycle;Max_cycle;Signal;HPM_P1;HPM_P2
2021/10/09 00:01:15;;;;;;;2.33;1.50;;;7.70;98.00;;;;;;5071698;28;20462;-68
2021/10/09 00:03:42;;;;;;;1.27;1.03;;;7.60;98.00;;;;;;5071830;28;20493;-67
2021/10/09 00:06:09;;;;;;;2.80;1.30;;;7.60;98.00;;;;;;5072043;28;20484;-68
2021/10/09 00:08:38;;;;;;;1.30;1.10;;;7.60;98.00;;;;;;5071690;28;21065;-68
2021/10/09 00:11:06;;;;;;;2.23;1.37;;;7.80;98.00;;;;;;5071893;28;20465;-69
2021/10/09 00:13:36;;;;;;;1.67;1.00;;;7.80;98.00;;;;;;5072000;28;20467;-69
2021/10/09 00:16:03;;;;;;;2.37;1.87;;;7.70;98.00;;;;;;5071697;28;20455;-67
2021/10/09 00:18:30;;;;;;;1.50;1.10;;;7.70;98.00;;;;;;5071522;28;20462;-68
2021/10/09 00:20:57;;;;;;;1.20;1.00;;;7.70;98.00;;;;;;5071791;28;20498;-68
2021/10/09 00:23:24;;;;;;;2.70;1.37;;;7.70;98.00;;;;;;5071764;28;20487;-67
2021/10/09 00:25:54;;;;;;;1.60;1.50;;;7.60;98.00;;;;;;5071405;28;20465;-68
2021/10/09 00:28:21;;;;;;;1.67;1.33;;;7.60;98.00;;;;;;5071510;28;20493;-70
2021/10/09 00:30:48;;;;;;;1.20;1.20;;;7.50;98.00;;;;;;5071598;28;20445;-68
2021/10/09 00:33:15;;;;;;;1.93;1.87;;;7.70;98.00;;;;;;5071374;28;20518;-67
2021/10/09 00:35:42;;;;;;;1.23;1.17;;;7.60;98.00;;;;;;5071548;28;20459;-68
2021/10/09 00:38:10;;;;;;;1.70;1.10;;;7.60;98.00;;;;;;5071569;28;20490;-68
2021/10/09 00:40:37;;;;;;;1.20;1.00;;;7.60;98.00;;;;;;5075628;28;20841;-68
2021/10/09 00:43:05;;;;;;;1.20;1.10;;;7.70;98.00;;;;;;5075560;28;21295;-67
2021/10/09 00:45:32;;;;;;;2.60;2.17;;;7.70;98.00;;;;;;5075540;28;20529;-68
2021/10/09 00:47:59;;;;;;;4.07;1.50;;;7.40;98.00;;;;;;5075540;28;20513;-68
2021/10/09 00:50:26;;;;;;;1.57;1.10;;;7.40;98.00;;;;;;5075630;28;20497;-67
2021/10/09 00:52:55;;;;;;;1.20;1.10;;;7.40;98.00;;;;;;5075519;28;20514;-69
2021/10/09 00:55:24;;;;;;;2.77;1.73;;;7.40;98.00;;;;;;5075488;28;20855;-67
2021/10/09 00:57:53;;;;;;;1.60;1.30;;;7.40;98.00;;;;;;5075354;28;20930;-69
2021/10/09 01:00:21;;;;;;;1.83;1.43;;;7.40;98.00;;;;;;5075297;28;20459;-68
2021/10/09 01:02:49;;;;;;;2.90;1.57;;;7.40;98.00;;;;;;5075433;28;20454;-68
2021/10/09 01:05:17;;;;;;;1.60;1.50;;;7.30;98.00;;;;;;5075585;28;20948;-68
2021/10/09 01:07:44;;;;;;;1.97;1.40;;;7.40;98.00;;;;;;5075153;28;20539;-67
2021/10/09 01:10:11;;;;;;;1.33;1.20;;;7.30;98.00;;;;;;5075117;28;20488;-71
2021/10/09 01:12:38;;;;;;;1.20;1.10;;;7.20;98.00;;;;;;5074929;28;20488;-68
2021/10/09 01:15:19;;;;;;;2.03;1.60;;;7.10;98.00;;;;;;5074769;28;20527;-68
2021/10/09 01:17:49;;;;;;;1.20;1.10;;;7.00;98.00;;;;;;5075187;28;20827;-68
2021/10/09 01:20:17;;;;;;;2.23;1.77;;;6.90;98.00;;;;;;5074807;28;20488;-68
2021/10/09 01:22:47;;;;;;;8.20;1.30;;;6.80;98.00;;;;;;5074886;28;20496;-67
2021/10/09 01:25:14;;;;;;;1.20;1.20;;;6.90;98.00;;;;;;5074853;28;20520;-68
2021/10/09 01:27:43;;;;;;;1.73;1.40;;;6.90;98.00;;;;;;5074616;28;20574;-68
2021/10/09 01:30:11;;;;;;;7.33;2.77;;;7.00;98.00;;;;;;5074339;28;20519;-67
2021/10/09 01:32:38;;;;;;;1.50;1.50;;;7.00;98.00;;;;;;5074500;28;20513;-67
2021/10/09 01:35:07;;;;;;;1.33;1.17;;;6.90;98.00;;;;;;5074590;28;20497;-68
2021/10/09 01:37:40;;;;;;;2.30;1.53;;;6.80;98.00;;;;;;5056898;28;20817;-67
2021/10/09 01:40:08;;;;;;;1.30;1.20;;;6.80;98.00;;;;;;5074557;28;20511;-68
2021/10/09 01:42:36;;;;;;;2.23;1.50;;;6.80;98.00;;;;;;5074443;28;20514;-67
2021/10/09 01:45:04;;;;;;;1.57;1.13;;;6.80;98.00;;;;;;5074502;28;20460;-67
2021/10/09 01:47:31;;;;;;;1.30;1.20;;;6.70;98.00;;;;;;5074205;28;20530;-69
2021/10/09 01:49:58;;;;;;;1.37;1.37;;;6.80;98.00;;;;;;5073562;28;20455;-68
2021/10/09 01:52:25;;;;;;;1.20;1.10;;;6.80;98.00;;;;;;5074135;28;20492;-70
2021/10/09 01:54:53;;;;;;;1.40;1.37;;;6.80;98.00;;;;;;5074238;28;20820;-68
2021/10/09 01:57:20;;;;;;;5.47;1.50;;;6.90;98.00;;;;;;5074364;28;20499;-68
2021/10/09 01:59:47;;;;;;;2.13;1.13;;;6.90;98.00;;;;;;5074280;28;20839;-67
2021/10/09 02:02:14;;;;;;;2.30;1.40;;;7.00;98.00;;;;;;5074232;28;20496;-67
2021/10/09 02:04:41;;;;;;;1.83;1.30;;;6.90;98.00;;;;;;5074101;28;20488;-68
2021/10/09 02:07:13;;;;;;;1.43;1.27;;;7.00;98.00;;;;;;5073978;28;20910;-69
2021/10/09 02:09:40;;;;;;;1.30;1.30;;;6.90;98.00;;;;;;5074229;28;20495;-69
2021/10/09 02:12:09;;;;;;;1.60;1.30;;;7.00;98.00;;;;;;5074085;28;20461;-67
2021/10/09 02:14:41;;;;;;;1.90;1.40;;;7.00;98.00;;;;;;5074080;28;20863;-68
2021/10/09 02:17:32;;;;;;;1.50;1.47;;;6.90;98.00;;;;;;5074020;28;20538;-67
2021/10/09 02:25:44;;;;;;;1.27;1.10;;;7.00;98.00;;;;;;5073642;28;20444;-67
2021/10/09 02:28:19;;;;;;;2.80;1.80;;;6.80;98.00;;;;;;5072872;28;20580;-67
2021/10/09 02:30:46;;;;;;;1.20;1.10;;;7.00;98.00;;;;;;5073267;28;20481;-67
2021/10/09 02:33:15;;;;;;;1.20;1.00;;;7.00;98.00;;;;;;5073660;28;20493;-68
2021/10/09 02:35:43;;;;;;;1.83;1.37;;;6.90;98.00;;;;;;5073352;28;20518;-67
2021/10/09 02:38:11;;;;;;;1.20;1.00;;;6.80;98.00;;;;;;5073454;28;20860;-68
2021/10/09 02:40:40;;;;;;;1.20;1.00;;;6.80;98.00;;;;;;5073639;28;20876;-67
2021/10/09 02:43:07;;;;;;;1.20;1.10;;;6.70;98.00;;;;;;5073256;28;20462;-68
2021/10/09 02:45:36;;;;;;;1.43;1.20;;;6.70;98.00;;;;;;5073178;28;20493;-66
2021/10/09 02:48:05;;;;;;;1.30;1.13;;;6.60;98.00;;;;;;5073215;28;20507;-68
2021/10/09 02:50:32;;;;;;;1.30;1.20;;;6.60;98.00;;;;;;5073130;28;20503;-66
2021/10/09 02:52:59;;;;;;;1.73;1.37;;;6.70;98.00;;;;;;5072985;28;20484;-67
2021/10/09 02:55:26;;;;;;;1.20;1.00;;;6.80;98.00;;;;;;5073156;28;21020;-67
2021/10/09 02:57:53;;;;;;;1.20;1.00;;;6.70;98.00;;;;;;5072962;28;20532;-68
2021/10/09 03:00:22;;;;;;;1.40;1.10;;;6.60;98.00;;;;;;5072943;28;20458;-68
2021/10/09 03:02:50;;;;;;;1.50;1.17;;;6.60;98.00;;;;;;5072830;28;20481;-67
2021/10/09 03:05:18;;;;;;;1.20;1.00;;;6.60;98.00;;;;;;5072795;28;20847;-67
2021/10/09 03:07:45;;;;;;;1.20;1.20;;;6.70;98.00;;;;;;5072602;28;20476;-67
2021/10/09 03:10:13;;;;;;;1.20;1.03;;;6.80;98.00;;;;;;5072767;28;20815;-67
2021/10/09 03:12:41;;;;;;;1.60;1.50;;;6.70;98.00;;;;;;5070548;28;20448;-67
2021/10/09 03:15:09;;;;;;;1.30;1.10;;;6.70;98.00;;;;;;5072911;28;20518;-68
2021/10/09 03:17:37;;;;;;;1.30;1.20;;;6.70;98.00;;;;;;5072661;28;20508;-68
2021/10/09 03:20:07;;;;;;;1.40;1.10;;;6.70;98.00;;;;;;5072642;28;20452;-67
2021/10/09 03:22:34;;;;;;;1.40;1.03;;;6.70;98.00;;;;;;5072532;28;20456;-67
2021/10/09 03:25:01;;;;;;;1.40;1.23;;;6.70;98.00;;;;;;5072612;28;20456;-68
2021/10/09 03:27:28;;;;;;;1.40;1.30;;;6.40;98.00;;;;;;5072397;28;20867;-67
2021/10/09 03:29:55;;;;;;;1.90;1.20;;;6.30;98.00;;;;;;5072537;28;20455;-69
2021/10/09 03:32:22;;;;;;;1.20;1.10;;;6.30;98.00;;;;;;5072527;28;20487;-68
2021/10/09 03:34:49;;;;;;;1.20;1.03;;;6.30;98.00;;;;;;5072661;28;20460;-67
2021/10/09 03:37:18;;;;;;;2.27;1.27;;;6.10;98.00;;;;;;5072387;28;20496;-68
2021/10/09 03:39:47;;;;;;;1.40;1.30;;;6.10;98.00;;;;;;5072366;28;20526;-70
2021/10/09 03:42:18;;;;;;;1.30;1.13;;;6.10;98.00;;;;;;5072348;28;20463;-68
2021/10/09 03:44:48;;;;;;;1.50;1.20;;;6.10;98.00;;;;;;5072457;28;20967;-68
2021/10/09 03:47:22;;;;;;;1.77;1.20;;;6.00;98.00;;;;;;5072224;28;20458;-66
2021/10/09 03:49:53;;;;;;;1.20;1.10;;;6.00;98.00;;;;;;5072522;28;20494;-70
2021/10/09 03:52:34;;;;;;;1.20;1.10;;;6.10;98.00;;;;;;5072100;28;20799;-67
2021/10/09 03:55:01;;;;;;;1.67;1.33;;;6.10;98.00;;;;;;5072367;28;20463;-68
2021/10/09 03:57:28;;;;;;;1.40;1.30;;;6.10;98.00;;;;;;5071827;28;20513;-68
2021/10/09 03:59:56;;;;;;;1.53;1.20;;;6.20;98.00;;;;;;5072040;28;20788;-68
2021/10/09 04:02:23;;;;;;;2.73;1.77;;;6.20;98.00;;;;;;5053888;28;20458;-69
2021/10/09 04:04:50;;;;;;;2.53;1.47;;;6.30;98.00;;;;;;5071908;28;20496;-67
2021/10/09 04:07:18;;;;;;;1.67;1.57;;;6.30;98.00;;;;;;5053819;28;20502;-69
2021/10/09 04:09:48;;;;;;;1.50;1.50;;;6.10;98.00;;;;;;5071780;28;20539;-69
2021/10/09 04:12:15;;;;;;;2.10;1.53;;;6.10;98.00;;;;;;5071682;28;20498;-67
2021/10/09 04:14:42;;;;;;;1.97;1.47;;;6.10;98.00;;;;;;5071276;28;20494;-67
2021/10/09 04:17:09;;;;;;;1.60;1.53;;;6.00;98.00;;;;;;5071608;28;20496;-69
2021/10/09 04:19:37;;;;;;;1.40;1.20;;;6.10;98.00;;;;;;5071750;28;20501;-68
2021/10/09 04:22:05;;;;;;;1.23;1.17;;;6.00;98.00;;;;;;5071582;28;20457;-67
2021/10/09 04:24:32;;;;;;;1.80;1.30;;;5.90;98.00;;;;;;5071504;28;20457;-67
2021/10/09 04:27:01;;;;;;;1.50;1.27;;;5.90;98.00;;;;;;5071729;28;20500;-68
2021/10/09 04:29:28;;;;;;;1.30;1.20;;;5.90;98.00;;;;;;5071688;28;20486;-67
2021/10/09 04:31:56;;;;;;;2.27;1.40;;;5.90;98.00;;;;;;5071608;28;20827;-68
2021/10/09 04:34:23;;;;;;;1.77;1.40;;;5.90;98.00;;;;;;5071544;28;20920;-67
2021/10/09 04:36:53;;;;;;;1.20;1.10;;;5.80;98.00;;;;;;5071823;28;20451;-68
2021/10/09 04:39:21;;;;;;;2.93;1.33;;;5.80;98.00;;;;;;5071485;28;20460;-68
2021/10/09 04:41:48;;;;;;;1.40;1.17;;;5.70;98.00;;;;;;5071543;28;20461;-67
2021/10/09 04:44:17;;;;;;;1.60;1.43;;;5.60;98.00;;;;;;5071544;28;20542;-68
2021/10/09 04:46:44;;;;;;;3.33;1.57;;;5.70;98.00;;;;;;5071589;28;20954;-66
2021/10/09 04:49:11;;;;;;;1.50;1.20;;;5.60;98.00;;;;;;5071364;28;20486;-67
2021/10/09 04:51:38;;;;;;;1.40;1.20;;;5.70;98.00;;;;;;5071453;28;20514;-67
2021/10/09 04:54:05;;;;;;;1.20;1.10;;;5.70;98.00;;;;;;5071416;28;20867;-68
2021/10/09 04:56:32;;;;;;;1.20;1.00;;;5.60;98.00;;;;;;5071446;28;21005;-68
2021/10/09 04:58:59;;;;;;;3.57;1.40;;;5.70;98.00;;;;;;5071352;28;20593;-68
2021/10/09 05:01:28;;;;;;;1.37;1.20;;;5.70;98.00;;;;;;5071307;28;20578;-68
2021/10/09 05:03:55;;;;;;;1.37;1.23;;;5.70;98.00;;;;;;5071528;28;20509;-69
2021/10/09 05:06:22;;;;;;;1.30;1.30;;;5.80;98.00;;;;;;5071288;28;20878;-68
2021/10/09 05:08:49;;;;;;;2.13;1.30;;;5.70;98.00;;;;;;5071158;28;20575;-68
2021/10/09 05:11:18;;;;;;;1.30;1.30;;;5.60;98.00;;;;;;5071597;28;20475;-68
2021/10/09 05:13:45;;;;;;;2.90;2.00;;;5.60;98.00;;;;;;5071235;28;20505;-71
2021/10/09 05:16:12;;;;;;;1.60;1.40;;;5.70;98.00;;;;;;5071326;28;20465;-67
2021/10/09 05:18:40;;;;;;;1.40;1.30;;;5.70;98.00;;;;;;5071153;28;20449;-68
2021/10/09 05:21:08;;;;;;;2.33;1.87;;;5.60;98.00;;;;;;5071010;28;20975;-68
2021/10/09 05:23:36;;;;;;;1.43;1.10;;;5.50;98.00;;;;;;5070913;28;20479;-68
2021/10/09 05:26:03;;;;;;;1.20;1.10;;;5.60;98.00;;;;;;5072364;28;20526;-69
2021/10/09 05:28:38;;;;;;;3.97;1.83;;;5.60;98.00;;;;;;5074554;28;20535;-67
2021/10/09 05:31:07;;;;;;;1.40;1.13;;;5.50;98.00;;;;;;5074723;28;20466;-66
2021/10/09 05:33:39;;;;;;;1.73;1.50;;;5.70;98.00;;;;;;5074504;28;20491;-67
2021/10/09 05:36:08;;;;;;;1.80;1.33;;;5.70;98.00;;;;;;5074603;28;20487;-69
2021/10/09 05:38:35;;;;;;;2.30;1.67;;;5.70;98.00;;;;;;5074470;28;20462;-67
2021/10/09 05:41:02;;;;;;;1.50;1.20;;;5.70;98.00;;;;;;5074664;28;20635;-67
2021/10/09 05:43:30;;;;;;;1.40;1.20;;;5.70;98.00;;;;;;5074519;28;20447;-66
2021/10/09 05:45:58;;;;;;;1.27;1.07;;;5.60;98.00;;;;;;5074434;28;20556;-68
2021/10/09 05:48:26;;;;;;;4.13;1.60;;;5.50;98.00;;;;;;5074339;28;20464;-66
2021/10/09 05:50:58;;;;;;;1.63;1.30;;;5.60;98.00;;;;;;5074374;28;20942;-66
2021/10/09 05:56:15;;;;;;;1.67;1.37;;;5.50;98.00;;;;;;5073487;28;20463;-68
2021/10/09 05:58:52;;;;;;;2.90;1.90;;;5.60;98.00;;;;;;5074114;28;20503;-67
2021/10/09 06:01:42;;;;;;;1.47;1.20;;;5.60;98.00;;;;;;5074172;28;20502;-69
2021/10/09 06:32:10;;;;;;;1.50;1.30;;;6.20;98.00;;;;;;5073985;28;20448;-69
2021/10/09 06:38:11;;;;;;;1.67;1.57;;;6.10;98.00;;;;;;4979344;28;20495;-68
2021/10/09 06:46:29;;;;;;;6.70;2.60;;;6.20;98.00;;;;;;5073715;28;20432;-67
2021/10/09 06:59:58;;;;;;;1.20;1.00;;;6.70;98.00;;;;;;5072988;28;20438;-67
2021/10/09 07:02:25;;;;;;;2.17;1.27;;;6.80;98.00;;;;;;5072768;28;20484;-69
2021/10/09 07:04:52;;;;;;;1.20;1.00;;;6.90;98.00;;;;;;5072763;28;20461;-68
2021/10/09 07:07:20;;;;;;;1.50;1.50;;;7.00;98.00;;;;;;5072723;28;20792;-67
2021/10/09 07:09:47;;;;;;;1.37;1.10;;;7.00;98.00;;;;;;5054895;28;20543;-67
2021/10/09 07:12:14;;;;;;;1.70;1.30;;;7.10;98.00;;;;;;5072880;28;20738;-67
2021/10/09 07:14:41;;;;;;;1.30;1.20;;;7.20;98.00;;;;;;5072510;28;20466;-69
2021/10/09 07:17:09;;;;;;;1.40;1.30;;;7.40;98.00;;;;;;5072681;28;20547;-69
2021/10/09 07:19:36;;;;;;;1.83;1.73;;;7.40;98.00;;;;;;5057542;28;20470;-70
2021/10/09 07:22:04;;;;;;;1.33;1.27;;;7.50;98.00;;;;;;5059390;28;20512;-70
2021/10/09 07:24:31;;;;;;;1.37;1.10;;;7.60;98.00;;;;;;5067419;28;20992;-70
2021/10/09 07:26:59;;;;;;;4.50;1.30;;;7.70;98.00;;;;;;5060528;28;20463;-69
2021/10/09 07:29:26;;;;;;;1.20;1.10;;;7.70;98.00;;;;;;5059663;28;20540;-67
2021/10/09 07:31:54;;;;;;;2.07;1.73;;;7.80;98.00;;;;;;5059176;28;20493;-68
2021/10/09 07:34:22;;;;;;;1.30;1.27;;;7.80;98.00;;;;;;5060789;28;20456;-68
2021/10/09 07:36:49;;;;;;;1.40;1.13;;;7.90;98.00;;;;;;5059641;28;20481;-67
2021/10/09 07:39:16;;;;;;;1.67;1.20;;;8.00;98.00;;;;;;5059697;28;20527;-68
2021/10/09 07:41:43;;;;;;;1.73;1.70;;;8.10;98.00;;;;;;5059432;28;20925;-69
2021/10/09 07:44:10;;;;;;;1.27;1.17;;;8.20;98.00;;;;;;5067740;28;20451;-72
2021/10/09 07:46:37;;;;;;;1.20;1.10;;;8.30;98.00;;;;;;5060090;28;20455;-70
2021/10/09 07:49:04;;;;;;;1.20;1.10;;;8.40;98.00;;;;;;5067204;28;20590;-68
2021/10/09 07:51:32;;;;;;;1.30;1.30;;;8.60;98.00;;;;;;5065312;28;20507;-71
2021/10/09 07:54:04;;;;;;;1.40;1.10;;;8.70;98.00;;;;;;5068305;28;20484;-71
2021/10/09 07:56:31;;;;;;;1.77;1.57;;;8.80;98.00;;;;;;5041141;28;20519;-69
2021/10/09 07:58:58;;;;;;;2.37;1.67;;;9.00;98.00;;;;;;5051046;28;20494;-70
2021/10/09 08:01:25;;;;;;;8.73;1.87;;;9.30;98.00;;;;;;5067710;28;20889;-70
2021/10/09 08:03:52;;;;;;;2.03;1.80;;;9.40;98.00;;;;;;5051006;28;20920;-70
2021/10/09 08:06:19;;;;;;;1.50;1.33;;;9.60;98.00;;;;;;5060070;28;20457;-70
2021/10/09 08:08:48;;;;;;;1.90;1.60;;;9.70;98.00;;;;;;5059047;28;20459;-69
2021/10/09 08:11:15;;;;;;;2.10;1.50;;;9.80;98.00;;;;;;5059464;28;20459;-70
2021/10/09 08:13:43;;;;;;;1.50;1.47;;;9.80;98.00;;;;;;5070365;28;21007;-71
2021/10/09 08:16:10;;;;;;;1.90;1.60;;;9.90;98.00;;;;;;5070882;28;20507;-70
2021/10/09 08:18:40;;;;;;;1.50;1.30;;;9.90;98.00;;;;;;5070854;28;21133;-70
2021/10/09 08:21:08;;;;;;;1.77;1.53;;;10.10;98.00;;;;;;5071048;28;20458;-70
2021/10/09 08:23:41;;;;;;;2.00;1.83;;;10.30;98.00;;;;;;5071367;28;20963;-70
2021/10/09 08:37:21;;;;;;;2.03;1.43;;;11.10;98.00;;;;;;5071813;28;20494;-71
2021/10/09 08:39:49;;;;;;;1.80;1.50;;;11.30;98.00;;;;;;5071555;28;20459;-70
2021/10/09 08:42:17;;;;;;;2.03;1.83;;;11.50;98.00;;;;;;5054174;28;20461;-69
2021/10/09 08:44:44;;;;;;;1.80;1.30;;;11.60;98.00;;;;;;5071539;28;20460;-70
2021/10/09 08:47:12;;;;;;;1.70;1.50;;;11.80;98.00;;;;;;5071722;28;20859;-70
2021/10/09 08:49:39;;;;;;;2.70;1.77;;;11.90;98.00;;;;;;5053851;28;20571;-68
2021/10/09 08:52:07;;;;;;;3.97;2.63;;;12.10;98.00;;;;;;5071732;28;20855;-69
2021/10/09 08:54:36;;;;;;;1.67;1.67;;;12.30;98.00;;;;;;5071595;28;20464;-70
2021/10/09 08:57:15;;;;;;;3.87;2.30;;;12.50;98.00;;;;;;5071582;28;20518;-70
2021/10/09 08:59:54;;;;;;;8.07;2.93;;;12.60;98.00;;;;;;5054734;28;20539;-70
2021/10/09 09:02:25;;;;;;;2.63;2.23;;;12.80;98.00;;;;;;5075563;28;20461;-70
2021/10/09 09:05:07;;;;;;;1.50;1.30;;;13.00;98.00;;;;;;5075547;28;20503;-70
2021/10/09 09:08:08;;;;;;;3.90;2.37;;;13.20;98.00;;;;;;5075416;28;21045;-70
2021/10/09 09:30:23;;;;;;;3.87;2.00;;;14.40;98.00;;;;;;5074578;28;20956;-70
2021/10/09 09:34:02;;;;;;;1.77;1.70;;;14.80;98.00;;;;;;5074714;28;20941;-70
2021/10/09 09:36:41;;;;;;;2.00;1.90;;;15.00;98.00;;;;;;5068937;28;20934;-70
2021/10/09 09:39:09;;;;;;;2.83;2.17;;;15.30;98.00;;;;;;5074396;28;20934;-70
2021/10/09 09:41:45;;;;;;;3.50;2.10;;;15.40;98.00;;;;;;5074568;28;20457;-70
2021/10/09 09:44:13;;;;;;;2.90;2.03;;;15.60;98.00;;;;;;5074513;28;20539;-70
2021/10/09 09:46:41;;;;;;;1.80;1.50;;;15.70;98.00;;;;;;5074276;28;20551;-70
2021/10/09 09:49:10;;;;;;;2.27;1.70;;;15.80;98.00;;;;;;5074311;28;20487;-71
2021/10/09 09:51:39;;;;;;;2.47;2.20;;;15.90;98.00;;;;;;5074117;28;20502;-69
2021/10/09 09:54:06;;;;;;;2.90;2.33;;;16.00;98.00;;;;;;5074061;28;20466;-71
2021/10/09 09:56:33;;;;;;;2.90;2.17;;;16.20;98.00;;;;;;5074250;28;20853;-70
2021/10/09 09:59:02;;;;;;;3.40;2.40;;;16.30;98.00;;;;;;5074268;28;20840;-70
2021/10/09 10:01:35;;;;;;;2.13;1.80;;;16.40;98.00;;;;;;5074326;28;20498;-70
2021/10/09 10:04:03;;;;;;;2.37;2.20;;;16.30;98.00;;;;;;5074148;28;20516;-71
2021/10/09 10:06:31;;;;;;;2.40;2.27;;;16.40;98.00;;;;;;5074345;28;20727;-69
2021/10/09 10:08:59;;;;;;;1.97;1.67;;;16.40;98.00;;;;;;5073945;28;20547;-69
2021/10/09 10:11:27;;;;;;;1.97;1.87;;;16.50;98.00;;;;;;5073214;28;20532;-70
2021/10/09 10:13:57;;;;;;;4.57;3.03;;;16.50;98.00;;;;;;5073969;28;20986;-70
2021/10/09 10:16:25;;;;;;;3.90;2.10;;;16.60;98.00;;;;;;5074089;28;21001;-70
2021/10/09 10:18:58;;;;;;;2.00;1.80;;;16.60;98.00;;;;;;5073689;28;20815;-70
2021/10/09 10:21:49;;;;;;;2.97;2.43;;;16.70;98.00;;;;;;5074212;28;20535;-69
2021/10/09 10:24:54;;;;;;;4.50;3.20;;;16.90;98.00;;;;;;5073989;28;20473;-70
2021/10/09 10:27:40;;;;;;;1.93;1.83;;;16.90;98.00;;;;;;5073762;28;20457;-70
2021/10/09 10:30:28;;;;;;;2.93;2.57;;;17.10;98.00;;;;;;5073704;28;20569;-70
2021/10/09 10:33:47;;;;;;;3.47;2.33;;;17.20;98.00;;;;;;5073911;28;20465;-71
2021/10/09 10:36:35;;;;;;;2.33;2.07;;;17.40;97.00;;;;;;5073915;28;20459;-69
2021/10/09 10:39:06;;;;;;;1.90;1.80;;;17.40;97.90;;;;;;5073503;28;20588;-69
2021/10/09 10:41:46;;;;;;;3.83;2.03;;;17.60;97.50;;;;;;5073385;28;20814;-71
2021/10/09 10:44:50;;;;;;;1.90;1.90;;;17.90;96.80;;;;;;5073606;28;20516;-69
2021/10/09 10:47:46;;;;;;;3.07;2.27;;;18.10;95.60;;;;;;5073505;28;20462;-70
2021/10/09 10:50:51;;;;;;;3.43;2.63;;;18.40;96.00;;;;;;5055547;28;20604;-69
2021/10/09 10:53:24;;;;;;;3.17;2.10;;;18.50;94.90;;;;;;5070448;28;21074;-70
2021/10/09 10:56:09;;;;;;;2.33;1.93;;;18.60;93.60;;;;;;5073396;28;20457;-69
2021/10/09 10:58:37;;;;;;;3.23;2.10;;;18.60;93.40;;;;;;5073138;28;21017;-70
2021/10/09 11:01:18;;;;;;;2.67;2.00;;;18.60;93.30;;;;;;5073127;28;20453;-70
2021/10/09 11:03:50;;;;;;;3.80;2.30;;;18.90;94.40;;;;;;5073014;28;21008;-69
2021/10/09 11:06:18;;;;;;;2.13;1.60;;;19.30;92.10;;;;;;5073159;28;21054;-70
2021/10/09 11:08:47;;;;;;;4.13;2.40;;;19.30;91.50;;;;;;5072660;28;20510;-69
2021/10/09 11:11:16;;;;;;;4.47;2.40;;;19.50;92.10;;;;;;5072466;28;20484;-70
2021/10/09 11:13:48;;;;;;;2.40;2.00;;;19.60;91.20;;;;;;5072941;28;20510;-70
2021/10/09 11:16:15;;;;;;;6.93;3.00;;;19.70;89.30;;;;;;5072715;28;20499;-70
2021/10/09 11:18:49;;;;;;;2.43;2.20;;;19.90;89.80;;;;;;5072927;28;20449;-71
2021/10/09 11:21:17;;;;;;;2.63;2.07;;;20.10;88.50;;;;;;5072776;28;20478;-70
2021/10/09 11:23:49;;;;;;;3.17;2.10;;;20.30;90.20;;;;;;5071613;28;20453;-70
2021/10/09 11:26:18;;;;;;;5.83;2.40;;;20.30;88.20;;;;;;5072577;28;20460;-69
2021/10/09 11:28:46;;;;;;;4.37;2.53;;;20.40;89.00;;;;;;5072572;28;21034;-71
2021/10/09 11:31:25;;;;;;;3.20;2.23;;;20.30;87.50;;;;;;5072559;28;21080;-70
2021/10/09 11:33:57;;;;;;;2.50;2.27;;;20.10;88.60;;;;;;5054569;28;20499;-70
2021/10/09 11:36:25;;;;;;;2.80;2.00;;;20.00;88.30;;;;;;5072594;28;20543;-70
2021/10/09 11:39:04;;;;;;;4.43;2.70;;;20.00;89.20;;;;;;5072433;28;20456;-70
2021/10/09 11:41:48;;;;;;;4.10;2.67;;;19.90;87.80;;;;;;5072680;28;20532;-70
2021/10/09 11:44:21;;;;;;;1.73;1.63;;;19.70;88.20;;;;;;5072417;28;20956;-70
2021/10/09 11:47:19;;;;;;;3.30;2.20;;;19.50;88.80;;;;;;5072681;28;20452;-70
2021/10/09 11:55:31;;;;;;;3.03;1.87;;;19.60;89.20;;;;;;5072567;28;20448;-70
2021/10/09 11:58:03;;;;;;;3.50;2.40;;;19.60;89.50;;;;;;5072477;28;20542;-70
2021/10/09 12:00:42;;;;;;;5.60;2.20;;;19.40;89.00;;;;;;5071776;28;20496;-70
2021/10/09 12:03:30;;;;;;;3.50;2.30;;;19.20;89.10;;;;;;5072136;28;20445;-70
2021/10/09 12:06:06;;;;;;;2.00;1.70;;;19.10;89.80;;;;;;5071856;28;20461;-70
2021/10/09 12:08:41;;;;;;;2.50;2.07;;;19.10;90.00;;;;;;5072103;28;20527;-71
2021/10/09 12:11:10;;;;;;;2.07;1.93;;;18.90;90.10;;;;;;5071771;28;20975;-70
2021/10/09 12:13:51;;;;;;;2.60;2.13;;;19.10;90.20;;;;;;5071573;28;20460;-71
2021/10/09 12:16:23;;;;;;;3.93;2.40;;;18.90;89.40;;;;;;5071948;28;20491;-71
2021/10/09 12:18:56;;;;;;;3.20;2.23;;;18.80;90.60;;;;;;5071852;28;20518;-69
2021/10/09 12:21:25;;;;;;;2.00;1.87;;;18.60;90.20;;;;;;5053838;28;20799;-70
2021/10/09 12:23:53;;;;;;;2.60;1.80;;;18.60;90.60;;;;;;5071731;28;20457;-70
2021/10/09 12:26:22;;;;;;;4.40;2.77;;;18.50;91.20;;;;;;5071738;28;20468;-70
2021/10/09 12:29:08;;;;;;;2.20;1.87;;;18.50;91.10;;;;;;5071508;28;20449;-70
2021/10/09 12:31:37;;;;;;;2.17;1.73;;;18.30;90.20;;;;;;5071637;28;20566;-70
2021/10/09 12:34:04;;;;;;;3.63;2.13;;;18.30;92.20;;;;;;5071258;28;20943;-70
2021/10/09 12:36:37;;;;;;;3.60;2.17;;;18.20;92.00;;;;;;5071706;28;20492;-70
2021/10/09 12:39:23;;;;;;;3.23;2.10;;;18.20;91.50;;;;;;5071559;28;20456;-70
2021/10/09 12:41:51;;;;;;;2.27;1.80;;;18.20;92.00;;;;;;5071579;28;20492;-71
2021/10/09 12:44:21;;;;;;;2.77;1.83;;;18.20;92.60;;;;;;5071591;28;20449;-70
2021/10/09 12:46:48;;;;;;;3.70;2.90;;;18.30;92.10;;;;;;5071612;28;20493;-70
2021/10/09 12:49:16;;;;;;;3.10;2.17;;;18.30;91.50;;;;;;5071409;28;20456;-70
2021/10/09 12:51:43;;;;;;;3.37;2.27;;;18.30;92.30;;;;;;5071615;28;20512;-70
2021/10/09 12:54:10;;;;;;;2.07;1.80;;;18.30;91.10;;;;;;5071489;28;20445;-70
2021/10/09 12:56:41;;;;;;;4.30;2.33;;;18.30;92.00;;;;;;5071459;28;20460;-70
2021/10/09 12:59:08;;;;;;;5.83;2.70;;;18.60;92.50;;;;;;5071491;28;20553;-70
2021/10/09 13:01:37;;;;;;;2.07;1.67;;;18.80;90.40;;;;;;5071565;28;20488;-71
2021/10/09 13:04:05;;;;;;;5.13;2.77;;;19.00;90.60;;;;;;5071381;28;20543;-70
2021/10/09 13:06:33;;;;;;;2.20;1.83;;;19.10;89.50;;;;;;5071422;28;20479;-70
2021/10/09 13:09:00;;;;;;;1.90;1.77;;;19.20;89.40;;;;;;5071556;28;20457;-70
2021/10/09 13:11:29;;;;;;;3.73;2.40;;;19.30;89.40;;;;;;5071439;28;20520;-70
2021/10/09 13:13:57;;;;;;;3.30;2.03;;;19.50;88.20;;;;;;5071505;28;20536;-70
2021/10/09 13:16:24;;;;;;;4.30;2.70;;;19.80;88.50;;;;;;5071575;28;20485;-71
2021/10/09 13:18:53;;;;;;;2.90;2.20;;;20.00;87.30;;;;;;5071636;28;20499;-70
2021/10/09 13:21:21;;;;;;;2.60;1.93;;;20.00;87.20;;;;;;5071442;28;20476;-70
2021/10/09 13:23:48;;;;;;;2.33;2.00;;;20.20;86.50;;;;;;5071218;28;20449;-70
2021/10/09 13:26:15;;;;;;;4.00;2.77;;;20.30;86.30;;;;;;5070649;28;20468;-71
2021/10/09 13:28:42;;;;;;;2.27;1.70;;;20.50;85.20;;;;;;5071204;28;20997;-70
2021/10/09 13:31:09;;;;;;;5.23;2.10;;;20.80;84.30;;;;;;5071123;28;20473;-70
2021/10/09 13:33:36;;;;;;;3.60;2.20;;;20.90;84.10;;;;;;5070928;28;20453;-70
2021/10/09 13:36:06;;;;;;;3.73;2.90;;;21.00;84.10;;;;;;5070994;28;20518;-71
2021/10/09 13:38:34;;;;;;;3.47;2.07;;;21.10;83.20;;;;;;5071094;28;20537;-70
2021/10/09 13:41:01;;;;;;;4.30;2.07;;;21.20;83.90;;;;;;5071307;28;20453;-71
2021/10/09 13:43:28;;;;;;;3.00;2.03;;;21.40;82.40;;;;;;5070875;28;20457;-71
2021/10/09 13:45:55;;;;;;;3.50;2.27;;;21.30;81.60;;;;;;5071105;28;20453;-70
2021/10/09 13:48:22;;;;;;;2.57;1.97;;;21.40;81.90;;;;;;5074233;28;20538;-72
2021/10/09 13:50:51;;;;;;;4.10;2.77;;;21.40;81.70;;;;;;5074542;28;20516;-71
2021/10/09 13:53:20;;;;;;;2.70;2.10;;;21.40;80.80;;;;;;5074303;28;20502;-71
2021/10/09 13:55:48;;;;;;;2.60;2.13;;;21.50;81.80;;;;;;5074475;28;20506;-70
2021/10/09 13:58:17;;;;;;;3.47;2.10;;;21.70;81.40;;;;;;5074047;28;20507;-71
2021/10/09 14:00:45;;;;;;;3.30;1.90;;;21.90;80.10;;;;;;5056715;28;20480;-71
2021/10/09 14:03:12;;;;;;;3.60;2.20;;;21.90;80.60;;;;;;5074366;28;20445;-71
2021/10/09 14:05:39;;;;;;;3.27;2.10;;;22.20;79.80;;;;;;5074170;28;20865;-71
2021/10/09 14:08:07;;;;;;;4.97;2.33;;;22.10;79.90;;;;;;5056443;28;20453;-71
2021/10/09 14:10:36;;;;;;;2.47;1.60;;;22.50;78.30;;;;;;5074077;28;20509;-71
2021/10/09 14:13:05;;;;;;;3.40;2.23;;;22.70;77.90;;;;;;5074363;28;20489;-72
2021/10/09 14:15:34;;;;;;;2.90;2.07;;;22.50;77.90;;;;;;5073905;28;20456;-71
2021/10/09 14:18:01;;;;;;;3.10;2.33;;;22.60;77.10;;;;;;5074213;28;20508;-72
2021/10/09 14:20:28;;;;;;;3.63;2.63;;;22.70;77.80;;;;;;5074140;28;20487;-71
2021/10/09 14:22:57;;;;;;;3.80;2.47;;;22.70;77.40;;;;;;5056117;28;20516;-72
2021/10/09 14:25:31;;;;;;;4.23;2.10;;;22.70;78.20;;;;;;5073444;28;20459;-71
2021/10/09 14:28:00;;;;;;;5.80;2.37;;;23.00;76.80;;;;;;5072844;28;21025;-71
2021/10/09 14:30:27;;;;;;;3.50;2.20;;;22.80;76.50;;;;;;5055193;28;20461;-72
2021/10/09 14:32:54;;;;;;;3.50;2.13;;;22.90;75.40;;;;;;5073427;28;20487;-72
2021/10/09 14:35:21;;;;;;;2.43;1.90;;;22.90;76.70;;;;;;5073079;28;20501;-72
2021/10/09 14:37:48;;;;;;;4.57;2.00;;;23.00;79.50;;;;;;5056263;28;20496;-71
2021/10/09 14:40:15;;;;;;;2.53;2.07;;;23.10;77.40;;;;;;5073885;28;20464;-72
2021/10/09 14:42:45;;;;;;;2.63;1.93;;;23.40;79.50;;;;;;5073945;28;20460;-72